Time;durP1;ratioP1;P1;durP2;ratioP2;P2;SDS_P1;SDS_P2;PMS_P1;PMS_P2;Temp;Humidity;BMP_temperature;BMP_pressure;BME280_temperature;BME280_humidity;BME280_pressure;Samples;Min_cycle;Max_cycle;Signal;HPM_P1;HPM_P2
2022/08/08 00:00:51;;;;;;;10.70;6.45;;;;;;;18.77;55.40;102356.41;4996058;28;20114;-67
2022/08/08 00:03:24;;;;;;;11.43;6.40;;;;;;;18.74;55.58;102350.13;4996107;28;20030;-68
2022/08/08 00:05:55;;;;;;;11.23;6.38;;;;;;;18.74;55.43;102352.81;4996167;28;20034;-68
2022/08/08 00:08:57;;;;;;;10.10;6.43;;;;;;;18.84;54.40;102356.38;4995979;28;20433;-68
2022/08/08 00:11:43;;;;;;;9.25;5.95;;;;;;;18.75;55.06;102352.81;4995756;28;20029;-68
2022/08/08 00:14:25;;;;;;;9.70;6.18;;;;;;;18.65;55.46;102355.44;4995864;28;20496;-68
2022/08/08 00:16:55;;;;;;;9.65;6.20;;;;;;;18.64;55.98;102354.56;4995805;28;20022;-68
2022/08/08 00:19:35;;;;;;;12.90;7.00;;;;;;;18.47;56.20;102364.34;4996040;28;20030;-68
2022/08/08 00:22:11;;;;;;;12.20;6.88;;;;;;;18.45;56.67;102360.75;4995848;28;20037;-68
2022/08/08 00:24:47;;;;;;;10.88;6.53;;;;;;;18.45;56.85;102358.97;4995854;28;20026;-68
2022/08/08 00:27:17;;;;;;;9.63;6.70;;;;;;;18.39;57.05;102364.31;4995612;28;20382;-67
2022/08/08 00:30:11;;;;;;;10.55;6.43;;;;;;;18.33;57.12;102364.31;4995434;28;20036;-67
2022/08/08 00:32:42;;;;;;;10.93;6.80;;;;;;;18.33;57.77;102366.06;4994893;28;20085;-68
2022/08/08 00:35:33;;;;;;;10.00;6.82;;;;;;;18.36;56.34;102374.13;4995557;28;20476;-68
2022/08/08 00:38:07;;;;;;;8.77;6.93;;;;;;;18.19;58.25;102372.28;4995322;28;20034;-68
2022/08/08 00:41:05;;;;;;;11.32;6.32;;;;;;;18.22;57.43;102377.66;4995446;28;20026;-68
2022/08/08 00:43:53;;;;;;;9.15;6.70;;;;;;;18.16;57.71;102376.75;4995292;28;20509;-68
2022/08/08 00:46:56;;;;;;;10.30;7.18;;;;;;;18.05;57.96;102371.34;4995278;28;20034;-68
2022/08/08 00:49:42;;;;;;;11.82;6.70;;;;;;;17.86;59.04;102374.78;4995344;28;20038;-68
2022/08/08 00:52:23;;;;;;;10.82;7.35;;;;;;;17.94;58.58;102365.94;4995280;28;20380;-67
2022/08/08 00:55:12;;;;;;;12.15;7.78;;;;;;;17.96;58.40;102363.28;4995191;28;20470;-68
2022/08/08 00:58:15;;;;;;;11.77;7.07;;;;;;;17.97;57.85;102360.59;4995061;28;20029;-68
2022/08/08 01:00:52;;;;;;;11.38;7.05;;;;;;;18.05;58.23;102359.75;4994965;28;20027;-67
2022/08/08 01:03:17;;;;;;;12.23;7.28;;;;;;;18.06;58.16;102359.75;4995105;28;20468;-68
2022/08/08 01:06:04;;;;;;;11.90;7.72;;;;;;;17.97;58.19;102354.34;4994990;28;20027;-68
2022/08/08 01:08:52;;;;;;;10.93;7.60;;;;;;;17.92;57.80;102348.09;4994988;28;20081;-68
2022/08/08 01:11:35;;;;;;;11.77;7.30;;;;;;;17.87;58.77;102357.88;4994581;28;20488;-68
2022/08/08 01:14:25;;;;;;;15.18;8.07;;;;;;;17.77;59.61;102364.94;4994755;28;20037;-68
2022/08/08 01:17:16;;;;;;;10.90;7.90;;;;;;;17.84;59.26;102358.75;4994937;28;20022;-68
2022/08/08 01:20:07;;;;;;;13.50;7.70;;;;;;;17.88;59.12;102354.31;4971581;28;20081;-68
2022/08/08 01:23:10;;;;;;;12.32;7.70;;;;;;;17.96;58.12;102355.25;4991386;28;20560;-68
2022/08/08 01:26:20;;;;;;;11.88;7.85;;;;;;;17.97;58.49;102359.72;4994443;28;20053;-68
2022/08/08 01:29:15;;;;;;;11.00;7.18;;;;;;;17.92;58.45;102350.78;4941580;28;20039;-68
2022/08/08 01:31:59;;;;;;;12.85;7.60;;;;;;;17.97;58.18;102349.00;4983628;28;20174;-69
2022/08/08 01:34:46;;;;;;;10.02;7.70;;;;;;;18.00;58.24;102354.38;4994437;28;20030;-68
2022/08/08 01:37:32;;;;;;;11.95;7.65;;;;;;;17.88;58.88;102349.84;4994406;28;20476;-68
2022/08/08 01:40:00;;;;;;;10.57;7.47;;;;;;;17.81;59.36;102352.50;4994162;28;20030;-68
2022/08/08 01:42:41;;;;;;;13.48;7.85;;;;;;;17.76;59.38;102349.78;4976787;28;20400;-68
2022/08/08 01:45:31;;;;;;;11.18;7.57;;;;;;;17.77;59.52;102348.91;4993753;28;20034;-68
2022/08/08 01:48:18;;;;;;;11.55;7.25;;;;;;;17.77;58.58;102344.47;4994139;28;20100;-68
2022/08/08 01:50:52;;;;;;;10.77;7.82;;;;;;;17.70;59.50;102353.31;4994117;28;20022;-68
2022/08/08 01:53:55;;;;;;;11.88;7.68;;;;;;;17.70;59.02;102349.75;4994010;28;20053;-68
2022/08/08 01:56:49;;;;;;;13.10;7.22;;;;;;;17.72;58.15;102358.66;4993953;28;20612;-68
2022/08/08 01:59:43;;;;;;;10.02;7.70;;;;;;;17.57;59.34;102363.94;4980768;28;20484;-68
2022/08/08 02:02:35;;;;;;;12.15;7.93;;;;;;;17.43;59.74;102362.06;4976536;28;20026;-68
2022/08/08 02:05:33;;;;;;;14.05;8.00;;;;;;;17.31;60.23;102353.06;4993973;28;20035;-68
2022/08/08 02:08:09;;;;;;;11.80;7.82;;;;;;;17.20;61.15;102356.53;4993977;28;20044;-68
2022/08/08 02:11:17;;;;;;;12.75;8.00;;;;;;;17.17;60.59;102358.28;4993575;28;20391;-68
2022/08/08 02:13:56;;;;;;;14.98;7.53;;;;;;;17.11;61.33;102361.81;4993777;28;20030;-68
2022/08/08 02:16:33;;;;;;;11.98;7.53;;;;;;;17.12;61.72;102360.03;4993889;28;20357;-68
2022/08/08 02:19:10;;;;;;;13.07;7.80;;;;;;;17.07;61.91;102368.00;4993841;28;20054;-68
2022/08/08 02:25:02;;;;;;;12.02;7.57;;;;;;;17.11;61.67;102360.91;4993914;28;20041;-68
2022/08/08 02:27:34;;;;;;;12.88;8.30;;;;;;;17.05;61.67;102356.44;4993425;28;20412;-68
2022/08/08 02:30:07;;;;;;;11.25;7.75;;;;;;;17.01;62.15;102358.19;4993941;28;20034;-68
2022/08/08 02:32:55;;;;;;;12.98;8.07;;;;;;;16.98;61.51;102360.81;4993654;28;20026;-68
2022/08/08 02:35:20;;;;;;;12.77;8.15;;;;;;;16.91;62.71;102358.06;4993507;28;20037;-69
2022/08/08 02:38:26;;;;;;;12.63;7.90;;;;;;;16.99;60.97;102357.25;4993753;28;20026;-68
2022/08/08 02:41:13;;;;;;;12.90;8.10;;;;;;;16.88;62.96;102361.63;4963880;28;20499;-68
2022/08/08 02:44:06;;;;;;;14.82;7.85;;;;;;;16.90;62.33;102351.84;4993595;28;20496;-68
2022/08/08 02:46:40;;;;;;;11.35;7.90;;;;;;;16.87;62.65;102361.59;4993577;28;20034;-68
2022/08/08 02:49:38;;;;;;;16.60;7.35;;;;;;;16.99;62.19;102367.94;4993390;28;20539;-68
2022/08/08 02:52:38;;;;;;;10.63;7.85;;;;;;;17.07;60.81;102357.31;4993454;28;20114;-68
2022/08/08 02:55:28;;;;;;;11.10;7.22;;;;;;;17.02;61.00;102351.94;4961775;28;20089;-68
2022/08/08 02:58:20;;;;;;;13.18;7.50;;;;;;;16.95;61.15;102357.22;4996055;28;20069;-68
2022/08/08 03:01:28;;;;;;;11.43;7.68;;;;;;;16.97;61.05;102360.81;4997571;28;20037;-68
2022/08/08 03:04:28;;;;;;;13.10;8.15;;;;;;;16.97;60.62;102366.16;4988987;28;20026;-68
2022/08/08 03:07:09;;;;;;;12.85;7.72;;;;;;;16.79;62.39;102356.22;4937077;29;20036;-68
2022/08/08 03:09:59;;;;;;;11.80;8.38;;;;;;;16.68;62.37;102361.41;4990649;28;20473;-68
2022/08/08 03:12:46;;;;;;;9.57;7.82;;;;;;;16.53;63.60;102361.25;4996972;28;20120;-68
2022/08/08 03:15:46;;;;;;;10.55;7.40;;;;;;;16.62;62.64;102357.78;4996918;28;20511;-67
2022/08/08 03:18:28;;;;;;;14.90;8.13;;;;;;;16.65;63.35;102357.81;4996380;28;20045;-68
2022/08/08 03:20:53;;;;;;;10.75;8.18;;;;;;;16.64;63.52;102366.69;4979682;28;20051;-68
2022/08/08 03:23:20;;;;;;;11.97;7.60;;;;;;;16.57;63.70;102372.84;4996939;28;20073;-68
2022/08/08 03:25:47;;;;;;;12.82;7.80;;;;;;;16.60;63.75;102371.09;4996710;28;20297;-68
2022/08/08 03:28:39;;;;;;;12.10;8.05;;;;;;;16.50;63.89;102366.56;4996712;28;20022;-67
2022/08/08 03:33:16;;;;;;;11.80;8.10;;;;;;;16.44;64.20;102361.13;4977167;28;20411;-68
2022/08/08 03:33:51;;;;;;;10.23;7.63;;;;;;;16.39;64.58;102371.75;4996763;28;20056;-67
2022/08/08 03:36:17;;;;;;;10.05;7.32;;;;;;;16.24;65.69;102372.50;4996568;28;20030;-67
2022/08/08 03:38:50;;;;;;;10.98;7.97;;;;;;;16.31;64.79;102373.44;4996628;28;20027;-68
2022/08/08 03:41:16;;;;;;;9.68;7.63;;;;;;;16.30;65.15;102377.00;4996409;28;20117;-68
2022/08/08 03:43:53;;;;;;;12.32;8.32;;;;;;;16.33;65.07;102374.38;4996775;28;20121;-68
2022/08/08 03:46:19;;;;;;;11.75;7.43;;;;;;;16.28;65.44;102378.75;4979200;28;20395;-68
2022/08/08 03:48:57;;;;;;;11.75;8.10;;;;;;;16.24;65.98;102385.81;4996424;28;20539;-68
2022/08/08 03:51:23;;;;;;;12.00;7.95;;;;;;;16.17;66.48;102380.41;4996317;28;20030;-68
2022/08/08 03:53:51;;;;;;;10.95;7.80;;;;;;;16.13;66.74;102381.22;4996138;28;20388;-68
2022/08/08 03:56:17;;;;;;;10.77;7.60;;;;;;;16.03;66.81;102389.13;4996272;28;20031;-68
2022/08/08 03:58:48;;;;;;;10.93;7.78;;;;;;;15.99;66.44;102392.63;4996137;28;20033;-68
2022/08/08 04:01:14;;;;;;;11.20;7.82;;;;;;;15.91;66.74;102390.72;4996326;28;20030;-68
2022/08/08 04:03:39;;;;;;;11.73;7.57;;;;;;;15.81;67.12;102386.16;4996039;28;20395;-68
2022/08/08 04:06:06;;;;;;;9.52;6.97;;;;;;;15.84;66.37;102388.84;4996112;28;20529;-68
2022/08/08 04:08:35;;;;;;;10.73;8.00;;;;;;;15.72;67.19;102393.16;4995108;28;20042;-68
2022/08/08 04:11:02;;;;;;;10.52;7.38;;;;;;;15.73;67.31;102399.38;4995796;28;20499;-67
2022/08/08 04:13:28;;;;;;;11.27;7.47;;;;;;;15.71;67.63;102401.09;4978929;28;20460;-68
2022/08/08 04:15:53;;;;;;;11.00;7.95;;;;;;;15.73;67.46;102396.72;4995920;28;20036;-68
2022/08/08 04:18:19;;;;;;;13.52;8.20;;;;;;;15.85;66.75;102398.66;4995892;28;20524;-68
2022/08/08 04:20:44;;;;;;;11.57;7.82;;;;;;;15.92;66.56;102390.75;4995941;28;20459;-68
2022/08/08 04:23:09;;;;;;;11.52;7.78;;;;;;;15.95;66.87;102397.91;4995758;28;20445;-68
2022/08/08 04:25:35;;;;;;;13.35;8.00;;;;;;;15.93;67.08;102389.88;4995400;28;20050;-68
2022/08/08 04:28:00;;;;;;;12.38;7.85;;;;;;;15.89;67.33;102393.38;4995974;28;20539;-67
2022/08/08 04:30:26;;;;;;;10.05;7.80;;;;;;;15.95;66.92;102395.22;4995616;28;20027;-68
2022/08/08 04:32:52;;;;;;;12.13;8.43;;;;;;;16.06;66.45;102395.34;4995789;28;20357;-68
2022/08/08 04:35:18;;;;;;;9.65;7.35;;;;;;;16.02;66.47;102392.66;4995627;28;20037;-68
2022/08/08 04:37:43;;;;;;;13.05;8.20;;;;;;;16.16;66.31;102397.28;4995318;28;20038;-69
2022/08/08 04:40:09;;;;;;;10.77;7.90;;;;;;;16.09;67.31;102403.41;4995246;28;20046;-68
2022/08/08 04:42:35;;;;;;;11.23;7.53;;;;;;;16.17;67.28;102409.72;4995589;28;20022;-68
2022/08/08 04:45:01;;;;;;;10.77;8.38;;;;;;;16.22;66.96;102413.34;4995488;28;20122;-68
2022/08/08 04:47:26;;;;;;;11.52;7.60;;;;;;;16.26;66.32;102413.41;4995222;28;20031;-68
2022/08/08 04:49:52;;;;;;;12.05;7.63;;;;;;;16.24;66.71;102412.50;4995219;28;20026;-68
2022/08/08 04:52:17;;;;;;;11.90;7.93;;;;;;;16.24;66.48;102425.84;4994939;28;20398;-68
2022/08/08 04:54:43;;;;;;;12.52;8.23;;;;;;;16.31;66.31;102429.47;4977796;28;20154;-68
2022/08/08 04:57:09;;;;;;;11.00;7.55;;;;;;;16.44;65.93;102433.19;4995173;28;20109;-68
2022/08/08 04:59:34;;;;;;;11.70;7.65;;;;;;;16.45;65.77;102435.00;4995048;28;20118;-68
2022/08/08 05:02:00;;;;;;;11.38;7.70;;;;;;;16.52;65.41;102429.72;4995206;28;20030;-68
2022/08/08 05:04:25;;;;;;;13.80;7.88;;;;;;;16.49;65.71;102443.06;4995158;28;20034;-67
2022/08/08 05:06:51;;;;;;;11.68;7.50;;;;;;;16.44;66.11;102446.53;4994753;28;20030;-68
2022/08/08 05:09:16;;;;;;;13.77;8.05;;;;;;;16.43;65.95;102444.72;4994915;28;20042;-68
2022/08/08 05:11:42;;;;;;;10.88;7.65;;;;;;;16.45;66.10;102438.56;4994802;28;20026;-68
2022/08/08 05:14:08;;;;;;;12.77;8.00;;;;;;;16.49;66.24;102444.81;4994876;28;20030;-68
2022/08/08 05:16:33;;;;;;;12.63;8.38;;;;;;;16.45;67.14;102443.88;4994710;28;20393;-67
2022/08/08 05:18:59;;;;;;;15.80;8.65;;;;;;;16.46;67.73;102445.66;4994120;28;20037;-68
2022/08/08 05:21:24;;;;;;;12.90;9.27;;;;;;;16.49;68.19;102443.06;4994123;28;20369;-68
2022/08/08 05:23:50;;;;;;;17.75;9.68;;;;;;;16.61;68.36;102446.72;4994603;28;20030;-68
2022/08/08 05:26:16;;;;;;;15.48;9.57;;;;;;;16.72;68.33;102451.34;4994478;28;20045;-68
2022/08/08 05:28:42;;;;;;;13.80;9.70;;;;;;;16.78;68.84;102442.50;4993308;28;20026;-68
2022/08/08 05:31:07;;;;;;;17.80;9.13;;;;;;;16.93;68.69;102444.44;4994732;28;20037;-68
2022/08/08 05:33:32;;;;;;;17.05;9.50;;;;;;;17.00;68.68;102444.53;4994563;28;20113;-68
2022/08/08 05:36:00;;;;;;;16.83;9.60;;;;;;;17.07;68.44;102444.56;4994487;28;20030;-68
2022/08/08 05:38:28;;;;;;;18.70;8.90;;;;;;;17.26;68.24;102439.44;4994212;28;20034;-68
2022/08/08 05:40:53;;;;;;;14.43;9.00;;;;;;;17.36;68.48;102450.19;4994034;28;20425;-68
2022/08/08 05:43:27;;;;;;;15.60;9.52;;;;;;;17.54;67.80;102447.66;4994265;28;20029;-68
2022/08/08 05:45:56;;;;;;;14.95;9.32;;;;;;;17.81;67.32;102448.75;4994319;28;20029;-68
2022/08/08 05:48:22;;;;;;;14.45;8.73;;;;;;;17.92;66.77;102449.72;4977023;28;20472;-68
2022/08/08 05:50:49;;;;;;;18.52;9.13;;;;;;;18.01;66.48;102458.69;4976488;28;20026;-68
2022/08/08 05:53:15;;;;;;;15.75;8.50;;;;;;;18.11;66.50;102456.06;4994125;28;20061;-68
2022/08/08 05:55:43;;;;;;;15.05;8.52;;;;;;;18.16;66.41;102449.88;4994115;28;20046;-68
2022/08/08 05:58:11;;;;;;;12.13;8.88;;;;;;;18.25;66.37;102462.41;4994299;28;20111;-68
2022/08/08 06:00:37;;;;;;;18.95;9.13;;;;;;;18.36;66.60;102460.66;4993943;28;20030;-68
2022/08/08 06:03:11;;;;;;;15.98;9.27;;;;;;;18.48;66.17;102457.13;4993875;28;20472;-68
2022/08/08 06:05:47;;;;;;;14.05;8.60;;;;;;;18.71;65.08;102459.91;4994186;28;20122;-68
2022/08/08 06:08:13;;;;;;;16.08;8.82;;;;;;;18.74;65.67;102462.63;4993990;28;20030;-68
2022/08/08 06:10:40;;;;;;;16.88;8.98;;;;;;;18.84;65.21;102455.47;4993614;28;20037;-69
2022/08/08 06:13:09;;;;;;;16.77;8.35;;;;;;;19.07;65.12;102460.91;4993883;28;20446;-68
2022/08/08 06:15:36;;;;;;;13.27;8.50;;;;;;;19.24;63.95;102456.47;4993996;28;20034;-68
2022/08/08 06:18:03;;;;;;;14.25;8.35;;;;;;;19.33;63.65;102458.25;4993573;28;20507;-68
2022/08/08 06:20:28;;;;;;;11.75;8.07;;;;;;;19.49;63.35;102462.72;4993761;28;20058;-68
2022/08/08 06:22:54;;;;;;;13.85;8.13;;;;;;;19.56;62.77;102461.81;4993688;28;20121;-67
2022/08/08 06:25:19;;;;;;;12.43;7.60;;;;;;;19.67;62.45;102470.78;4993499;28;20033;-68
2022/08/08 06:27:56;;;;;;;15.15;7.60;;;;;;;19.92;62.16;102466.28;4993758;28;20023;-67
2022/08/08 06:30:22;;;;;;;13.85;7.82;;;;;;;19.99;60.94;102475.19;4993149;28;20041;-68
2022/08/08 06:32:51;;;;;;;13.52;7.93;;;;;;;20.14;61.27;102469.78;4993592;28;20030;-68
2022/08/08 06:35:17;;;;;;;15.07;8.00;;;;;;;20.31;59.89;102476.91;4993861;28;20058;-68
2022/08/08 06:37:51;;;;;;;18.10;7.43;;;;;;;20.46;59.49;102480.41;4993571;28;20543;-68
2022/08/08 06:40:18;;;;;;;12.20;7.22;;;;;;;20.67;59.31;102482.13;4993699;28;20030;-68
2022/08/08 06:42:54;;;;;;;10.60;7.15;;;;;;;20.84;58.65;102481.16;4993370;28;20101;-68
2022/08/08 06:45:21;;;;;;;15.43;6.85;;;;;;;20.93;57.76;102475.72;4993642;28;20025;-67
2022/08/08 06:47:48;;;;;;;12.60;6.97;;;;;;;21.05;56.85;102481.00;4993672;28;20053;-67
2022/08/08 06:50:14;;;;;;;12.35;6.90;;;;;;;21.16;56.45;102481.84;4993530;28;20029;-68
2022/08/08 06:52:41;;;;;;;11.95;6.78;;;;;;;21.34;55.72;102488.03;4993542;28;20027;-68
2022/08/08 06:55:07;;;;;;;12.63;7.40;;;;;;;21.43;56.05;102482.56;4993130;28;20117;-68
2022/08/08 06:57:33;;;;;;;14.68;8.65;;;;;;;21.62;54.52;102483.28;4993410;28;20026;-68
2022/08/08 06:59:59;;;;;;;19.00;8.50;;;;;;;21.85;54.27;102483.97;4993380;28;20030;-68
2022/08/08 07:02:27;;;;;;;15.40;8.70;;;;;;;21.91;53.84;102488.41;4993254;28;20030;-68
2022/08/08 07:04:56;;;;;;;14.15;7.45;;;;;;;22.05;53.25;102494.53;4993338;28;20034;-67
2022/08/08 07:07:41;;;;;;;11.73;7.43;;;;;;;22.09;52.89;102492.69;4993274;28;20030;-67
2022/08/08 07:10:09;;;;;;;11.10;6.70;;;;;;;22.30;51.77;102488.91;4993099;28;20026;-68
2022/08/08 07:12:39;;;;;;;10.80;6.53;;;;;;;22.45;51.79;102491.44;4993237;28;20050;-67
2022/08/08 07:15:07;;;;;;;11.55;6.78;;;;;;;22.58;51.64;102494.84;4993435;28;20034;-68
2022/08/08 07:17:42;;;;;;;11.20;6.70;;;;;;;22.73;51.19;102492.81;4993296;28;20026;-68
2022/08/08 07:20:09;;;;;;;11.63;5.95;;;;;;;22.89;50.49;102500.72;4993237;28;20050;-67
2022/08/08 07:23:16;;;;;;;12.00;5.60;;;;;;;23.22;50.25;102499.38;4993116;28;20085;-67
2022/08/08 07:25:44;;;;;;;10.60;5.40;;;;;;;23.35;49.17;102503.66;4964049;28;20053;-68
2022/08/08 07:28:12;;;;;;;10.32;4.50;;;;;;;23.43;47.92;102501.72;4992929;28;20034;-68
2022/08/08 07:30:39;;;;;;;11.00;4.43;;;;;;;23.55;47.82;102499.72;4993118;28;20026;-67
2022/08/08 07:33:05;;;;;;;8.80;4.40;;;;;;;23.72;47.22;102503.97;4992954;28;20034;-67
2022/08/08 07:35:32;;;;;;;8.07;4.10;;;;;;;23.76;47.51;102503.88;4993197;28;20061;-68
2022/08/08 07:37:59;;;;;;;10.93;3.88;;;;;;;23.80;46.81;102502.91;4993127;28;20065;-68
2022/08/08 07:40:26;;;;;;;10.20;4.20;;;;;;;23.85;46.86;102504.59;4992700;28;20027;-68
2022/08/08 07:42:52;;;;;;;7.57;4.20;;;;;;;24.07;45.85;102504.19;4993703;28;20022;-67
2022/08/08 07:45:19;;;;;;;8.20;3.72;;;;;;;24.21;45.36;102507.53;4979172;28;20030;-68
2022/08/08 07:47:45;;;;;;;9.50;3.70;;;;;;;24.40;45.15;102508.97;4996381;28;20030;-67
2022/08/08 07:50:11;;;;;;;11.13;3.65;;;;;;;24.38;44.86;102509.94;4996212;28;20030;-67
2022/08/08 07:52:45;;;;;;;6.90;3.20;;;;;;;24.43;45.04;102508.91;4996390;28;20050;-67
2022/08/08 07:55:25;;;;;;;9.02;3.20;;;;;;;24.63;44.78;102500.41;4995876;28;20042;-67
2022/08/08 07:58:05;;;;;;;5.53;3.03;;;;;;;24.83;44.50;102509.88;4995865;28;20041;-67
2022/08/08 08:00:45;;;;;;;6.45;2.90;;;;;;;24.85;44.49;102516.16;4996039;28;20022;-67
2022/08/08 08:03:12;;;;;;;6.55;2.65;;;;;;;24.92;43.52;102517.78;4996119;28;20034;-67
2022/08/08 08:05:50;;;;;;;5.43;2.45;;;;;;;25.02;43.76;102518.47;4978756;28;20384;-67
2022/08/08 08:08:18;;;;;;;5.70;2.70;;;;;;;25.17;42.62;102520.84;4995997;28;20365;-68
2022/08/08 08:10:55;;;;;;;6.75;2.70;;;;;;;25.54;42.91;102518.16;4995940;28;20038;-67
2022/08/08 08:13:35;;;;;;;7.03;2.60;;;;;;;25.67;42.39;102511.50;4996189;28;20053;-68
2022/08/08 08:16:12;;;;;;;9.13;2.67;;;;;;;25.81;41.26;102524.69;4995908;28;20391;-68
2022/08/08 08:18:44;;;;;;;7.30;2.70;;;;;;;26.01;41.41;102517.88;4995922;28;20567;-67
2022/08/08 08:21:10;;;;;;;5.80;2.70;;;;;;;26.06;41.05;102521.34;4995496;28;20019;-67
2022/08/08 08:23:36;;;;;;;8.63;2.78;;;;;;;26.06;41.49;102524.94;4995692;28;20121;-67
2022/08/08 08:26:03;;;;;;;5.90;2.30;;;;;;;26.22;40.61;102526.28;4978034;28;20449;-67
2022/08/08 08:28:28;;;;;;;6.90;2.50;;;;;;;26.16;39.80;102525.56;4995979;28;20122;-65
2022/08/08 08:30:54;;;;;;;6.55;2.58;;;;;;;26.58;38.44;102528.91;4995651;28;20038;-66
2022/08/08 08:33:21;;;;;;;6.85;2.70;;;;;;;26.73;38.65;102527.56;4995912;28;20026;-67
2022/08/08 08:35:47;;;;;;;7.13;2.40;;;;;;;26.93;38.42;102525.13;4995624;28;20023;-66
2022/08/08 08:38:13;;;;;;;5.97;2.38;;;;;;;27.11;36.54;102526.41;4995389;28;20388;-67
2022/08/08 08:40:39;;;;;;;6.35;2.30;;;;;;;27.24;37.25;102523.28;4995366;28;20039;-67
2022/08/08 08:43:04;;;;;;;6.78;2.53;;;;;;;27.46;37.06;102525.25;4995415;28;20062;-66
2022/08/08 08:45:30;;;;;;;7.82;2.42;;;;;;;27.54;36.40;102535.00;4995418;28;20038;-67
2022/08/08 08:47:56;;;;;;;6.22;2.30;;;;;;;27.68;36.35;102533.56;4995006;28;20027;-66
2022/08/08 08:50:23;;;;;;;5.07;2.58;;;;;;;27.80;35.72;102528.72;4995290;28;20503;-67
2022/08/08 08:52:49;;;;;;;5.32;2.22;;;;;;;27.79;35.59;102530.50;4995489;28;20471;-66
2022/08/08 08:55:17;;;;;;;5.22;2.38;;;;;;;27.86;34.78;102531.19;4995262;28;20556;-66
2022/08/08 08:57:46;;;;;;;5.45;2.08;;;;;;;28.05;33.86;102525.97;4995427;28;20112;-66
2022/08/08 09:00:12;;;;;;;5.13;2.10;;;;;;;28.16;33.46;102530.09;4994937;28;20030;-66
2022/08/08 09:02:39;;;;;;;7.70;2.28;;;;;;;28.18;33.69;102525.50;4995245;28;20049;-67
2022/08/08 09:05:09;;;;;;;4.03;2.00;;;;;;;28.56;33.37;102539.53;4995022;28;20065;-67
2022/08/08 09:07:35;;;;;;;4.88;2.20;;;;;;;28.70;32.78;102531.75;4994981;28;20034;-67
2022/08/08 09:10:03;;;;;;;5.22;2.17;;;;;;;28.66;33.36;102534.63;4994513;28;20358;-67
2022/08/08 09:12:30;;;;;;;5.25;2.35;;;;;;;28.80;32.86;102531.38;4994978;28;20041;-67
2022/08/08 09:14:57;;;;;;;6.55;2.40;;;;;;;29.07;32.71;102529.41;4994958;28;20511;-67
2022/08/08 09:17:24;;;;;;;4.28;2.10;;;;;;;29.28;31.88;102533.13;4994760;28;20544;-66
2022/08/08 09:19:57;;;;;;;6.82;2.10;;;;;;;29.20;32.97;102527.97;4994948;28;20027;-66
2022/08/08 09:22:23;;;;;;;4.97;2.22;;;;;;;29.19;32.50;102531.66;4994885;28;20026;-67
2022/08/08 09:24:50;;;;;;;4.68;2.20;;;;;;;29.19;31.92;102527.09;4994717;28;20034;-67
2022/08/08 09:27:17;;;;;;;6.18;2.10;;;;;;;29.14;31.97;102523.69;4979278;28;20405;-67
2022/08/08 09:30:01;;;;;;;5.07;2.00;;;;;;;29.54;33.02;102526.56;4958096;28;20038;-67
2022/08/08 09:32:43;;;;;;;5.43;1.95;;;;;;;29.55;31.82;102522.88;4975131;28;20504;-66
2022/08/08 09:35:10;;;;;;;;;;;;;;;29.91;32.64;102532.25;4975435;28;20023;-67
2022/08/08 09:37:44;;;;;;;6.78;2.20;;;;;;;30.03;31.90;102522.66;4975083;28;19921;-67
2022/08/08 09:40:11;;;;;;;4.20;2.03;;;;;;;29.85;32.23;102527.09;4974829;28;20070;-67
2022/08/08 09:42:45;;;;;;;7.85;2.25;;;;;;;29.49;32.91;102526.78;4975227;28;20019;-66
2022/08/08 09:45:53;;;;;;;7.40;2.00;;;;;;;29.08;33.14;102521.22;4974807;28;20496;-67
2022/08/08 09:48:18;;;;;;;5.93;2.13;;;;;;;28.68;33.28;102522.72;4966657;28;20523;-67
2022/08/08 09:50:45;;;;;;;5.75;2.00;;;;;;;28.60;33.49;102522.13;4974701;28;20066;-66
2022/08/08 09:53:17;;;;;;;6.03;1.80;;;;;;;28.08;34.77;102529.47;4974812;28;20026;-66
2022/08/08 09:55:44;;;;;;;4.85;1.83;;;;;;;27.85;35.36;102521.28;4974576;28;20393;-66
2022/08/08 09:58:17;;;;;;;5.18;2.03;;;;;;;28.00;35.99;102534.31;4974531;28;20053;-67
2022/08/08 10:00:45;;;;;;;8.02;2.15;;;;;;;28.62;35.21;102522.97;4974548;28;20481;-66
2022/08/08 10:03:14;;;;;;;4.05;2.10;;;;;;;29.22;33.74;102522.47;4974401;28;20084;-67
2022/08/08 10:05:40;;;;;;;10.50;2.20;;;;;;;29.20;33.31;102517.97;4973980;28;20456;-67
2022/08/08 10:08:07;;;;;;;3.47;1.90;;;;;;;28.88;33.48;102524.69;4974725;28;20039;-66
2022/08/08 10:10:38;;;;;;;6.55;2.15;;;;;;;28.49;34.21;102523.50;4956872;28;20027;-67
2022/08/08 10:13:23;;;;;;;5.25;2.15;;;;;;;28.98;33.94;102525.22;4974595;28;20031;-66
2022/08/08 10:15:52;;;;;;;5.53;2.30;;;;;;;29.20;32.99;102525.25;4974405;28;20038;-67
2022/08/08 10:18:29;;;;;;;4.93;2.08;;;;;;;29.10;34.18;102532.91;4974299;28;20102;-66
2022/08/08 10:21:05;;;;;;;9.88;2.40;;;;;;;28.85;33.73;102535.69;4974361;28;20117;-66
2022/08/08 10:23:33;;;;;;;6.00;2.00;;;;;;;28.59;34.22;102533.09;4974315;28;20483;-66
2022/08/08 10:26:01;;;;;;;8.55;2.63;;;;;;;28.23;34.96;102527.16;4978856;28;20062;-67
2022/08/08 10:28:35;;;;;;;4.18;1.92;;;;;;;28.11;35.12;102523.94;4993663;28;20023;-66
2022/08/08 10:33:46;;;;;;;3.25;1.80;;;;;;;28.27;33.05;102521.56;4993982;28;20096;-66
2022/08/08 10:36:14;;;;;;;5.18;1.95;;;;;;;28.80;32.88;102523.22;4993537;28;20034;-67
2022/08/08 10:38:41;;;;;;;6.70;1.90;;;;;;;29.41;31.29;102518.91;4993557;28;20027;-67
2022/08/08 10:41:15;;;;;;;3.38;1.80;;;;;;;30.02;30.88;102523.63;4993392;28;20027;-67
2022/08/08 10:43:41;;;;;;;4.63;1.80;;;;;;;30.52;31.73;102517.72;4993747;28;20035;-66
2022/08/08 10:46:25;;;;;;;3.10;1.65;;;;;;;31.11;28.91;102513.13;4993531;28;20062;-66
2022/08/08 10:48:55;;;;;;;6.35;1.90;;;;;;;31.17;29.73;102518.25;4993519;28;20045;-66
2022/08/08 10:51:21;;;;;;;4.70;2.00;;;;;;;30.92;29.19;102516.75;4993461;28;20085;-67
2022/08/08 10:53:49;;;;;;;4.95;1.98;;;;;;;31.09;29.52;102524.13;4993440;28;20479;-67
2022/08/08 10:56:16;;;;;;;6.45;2.15;;;;;;;30.77;29.10;102516.59;4993613;28;20030;-66
2022/08/08 10:58:42;;;;;;;4.68;2.00;;;;;;;30.82;29.47;102518.13;4993520;28;20038;-66
2022/08/08 11:01:08;;;;;;;3.72;1.90;;;;;;;30.54;29.39;102520.38;4993462;28;20369;-66
2022/08/08 11:03:44;;;;;;;6.40;2.13;;;;;;;30.29;29.69;102523.34;4993205;28;20022;-67
2022/08/08 11:06:10;;;;;;;4.20;1.70;;;;;;;30.14;29.42;102512.16;4993341;28;20060;-67
2022/08/08 11:08:38;;;;;;;4.40;2.00;;;;;;;30.35;29.54;102512.16;4993619;28;20118;-67
2022/08/08 11:11:09;;;;;;;3.88;1.67;;;;;;;30.52;28.92;102511.38;4993056;28;20022;-66
2022/08/08 11:13:42;;;;;;;4.97;1.70;;;;;;;30.47;30.04;102514.31;4993347;28;20030;-67
2022/08/08 11:16:16;;;;;;;1.77;1.38;;;;;;;30.46;28.84;102507.09;4993327;28;20391;-67
2022/08/08 11:18:43;;;;;;;5.35;1.70;;;;;;;30.31;29.41;102503.22;4995409;28;20030;-67
2022/08/08 11:21:10;;;;;;;6.20;2.00;;;;;;;30.08;31.17;102504.25;4997196;28;20022;-67
2022/08/08 11:23:40;;;;;;;5.90;2.10;;;;;;;29.82;30.31;102505.41;4996990;28;20480;-67
2022/08/08 11:26:05;;;;;;;6.43;1.70;;;;;;;29.66;30.97;102498.84;4996780;28;20129;-66
2022/08/08 11:28:35;;;;;;;5.45;1.77;;;;;;;29.58;30.95;102501.00;4996771;28;20445;-67
2022/08/08 11:31:03;;;;;;;2.83;1.63;;;;;;;29.94;29.87;102496.69;4979354;28;20026;-67
2022/08/08 11:33:33;;;;;;;5.47;1.67;;;;;;;30.31;29.91;102496.88;4996856;28;20026;-67
2022/08/08 11:36:00;;;;;;;3.00;1.50;;;;;;;30.72;28.07;102491.34;4996682;28;20093;-67
2022/08/08 11:38:26;;;;;;;7.07;1.55;;;;;;;30.93;27.58;102487.59;4979322;28;20077;-67
2022/08/08 11:40:52;;;;;;;4.07;1.48;;;;;;;31.07;28.89;102492.38;4996451;28;20380;-67
2022/08/08 11:43:19;;;;;;;3.70;1.50;;;;;;;31.72;26.00;102477.22;4997068;28;20027;-67
2022/08/08 11:45:45;;;;;;;3.13;1.60;;;;;;;31.72;25.86;102477.22;4996481;28;20023;-67
2022/08/08 11:48:13;;;;;;;4.25;1.60;;;;;;;31.84;26.34;102482.09;4996681;28;20101;-66
2022/08/08 11:50:39;;;;;;;5.93;1.70;;;;;;;31.81;25.95;102475.84;4996348;28;20447;-66
2022/08/08 11:53:06;;;;;;;2.38;1.45;;;;;;;31.38;25.77;102476.22;4996473;28;20544;-66
2022/08/08 11:55:34;;;;;;;2.80;1.40;;;;;;;31.39;26.39;102478.03;4996353;28;20073;-66